createdAt,value
2022-11-23T00:02:57.377Z,6.53
2022-11-23T00:07:59.515Z,5.63
2022-11-23T00:13:01.794Z,6.15
2022-11-23T00:18:04.083Z,5.35
2022-11-23T00:23:06.094Z,5.00
2022-11-23T00:28:08.172Z,5.10
2022-11-23T00:33:10.192Z,4.40
2022-11-23T00:38:12.468Z,4.75
2022-11-23T00:43:14.478Z,4.65
2022-11-23T00:48:16.612Z,4.80
2022-11-23T00:53:18.595Z,4.60
2022-11-23T00:58:21.178Z,3.75
2022-11-23T01:03:23.245Z,4.93
2022-11-23T01:08:26.762Z,4.50
2022-11-23T01:13:29.740Z,5.13
2022-11-23T01:18:31.719Z,4.63
2022-11-23T01:23:33.813Z,4.40
2022-11-23T01:28:38.043Z,4.95
2022-11-23T01:33:40.552Z,4.72
2022-11-23T01:38:43.401Z,4.85
2022-11-23T01:43:45.798Z,4.15
2022-11-23T01:49:07.673Z,4.03
2022-11-23T01:54:13.440Z,4.40
2022-11-23T01:59:19.116Z,5.40
2022-11-23T02:04:27.099Z,4.60
2022-11-23T02:09:32.355Z,5.00
2022-11-23T02:14:34.677Z,4.85
2022-11-23T02:20:15.443Z,4.93
2022-11-23T02:25:42.370Z,5.30
2022-11-23T02:30:47.287Z,5.53
2022-11-23T02:35:50.698Z,6.00
2022-11-23T02:40:52.888Z,5.13
2022-11-23T02:46:03.478Z,4.97
2022-11-23T02:51:06.587Z,4.82
2022-11-23T02:56:08.583Z,4.43
2022-11-23T03:01:10.817Z,4.40
2022-11-23T03:06:13.122Z,4.15
2022-11-23T03:11:15.267Z,3.85
2022-11-23T03:16:17.395Z,3.50
2022-11-23T03:21:22.545Z,3.22
2022-11-23T03:26:24.779Z,3.22
2022-11-23T03:31:37.589Z,2.72
2022-11-23T03:36:42.823Z,2.95
2022-11-23T03:41:45.147Z,3.40
2022-11-23T03:46:47.371Z,3.08
2022-11-23T03:51:49.595Z,3.53
2022-11-23T03:56:51.682Z,3.00
2022-11-23T04:01:54.078Z,2.58
2022-11-23T04:07:00.962Z,2.67
2022-11-23T04:12:09.780Z,2.90
2022-11-23T04:17:13.707Z,2.88
2022-11-23T04:22:15.891Z,2.60
2022-11-23T04:27:18.187Z,2.45
2022-11-23T04:32:20.259Z,3.00
2022-11-23T04:37:23.357Z,2.53
2022-11-23T04:42:25.515Z,2.92
2022-11-23T04:47:32.364Z,2.38
2022-11-23T04:52:38.545Z,2.67
2022-11-23T04:57:48.744Z,2.40
2022-11-23T05:02:50.918Z,2.30
2022-11-23T05:07:57.419Z,2.13
2022-11-23T05:13:06.431Z,2.15
2022-11-23T05:18:10.466Z,2.65
2022-11-23T05:23:14.441Z,2.00
2022-11-23T05:33:47.429Z,2.47
2022-11-23T05:38:52.649Z,2.67
2022-11-23T05:44:01.897Z,2.75
2022-11-23T05:49:05.673Z,2.20
2022-11-23T05:54:11.778Z,2.40
2022-11-23T05:59:17.978Z,2.38
2022-11-23T06:04:25.907Z,1.90
2022-11-23T06:09:28.865Z,2.20
2022-11-23T06:14:37.467Z,2.25
2022-11-23T06:19:39.796Z,2.80
2022-11-23T06:24:42.360Z,3.20
2022-11-23T06:30:11.734Z,3.33
2022-11-23T06:35:14.074Z,2.42
2022-11-23T06:40:18.020Z,2.40
2022-11-23T06:45:20.364Z,3.00
2022-11-23T06:50:25.810Z,3.10
2022-11-23T06:55:27.975Z,3.05
2022-11-23T07:00:30.467Z,2.33
2022-11-23T07:05:32.654Z,3.08
2022-11-23T07:10:35.453Z,2.30
2022-11-23T07:15:39.330Z,2.38
2022-11-23T07:20:41.547Z,2.75
2022-11-23T07:25:43.857Z,2.63
2022-11-23T07:30:46.654Z,2.60
2022-11-23T07:35:50.238Z,2.47
2022-11-23T07:40:52.446Z,2.53
2022-11-23T07:46:14.255Z,2.60
2022-11-23T07:51:16.815Z,2.50
2022-11-23T07:56:18.885Z,3.03
2022-11-23T08:01:21.443Z,2.95
2022-11-23T08:06:23.747Z,2.20
2022-11-23T08:11:25.803Z,2.42
2022-11-23T08:16:27.919Z,2.80
2022-11-23T08:21:29.904Z,2.72
2022-11-23T08:26:32.017Z,2.85
2022-11-23T08:31:34.032Z,2.50
2022-11-23T08:36:37.231Z,2.50
2022-11-23T08:41:39.474Z,2.63
2022-11-23T08:46:41.666Z,2.85
2022-11-23T08:51:49.703Z,2.58
2022-11-23T08:56:52.325Z,2.67
2022-11-23T09:01:54.541Z,3.13
2022-11-23T09:06:57.028Z,2.58
2022-11-23T09:11:59.231Z,3.63
2022-11-23T09:17:02.155Z,2.40
2022-11-23T09:22:04.358Z,2.78
2022-11-23T09:27:06.514Z,2.50
2022-11-23T09:32:08.490Z,2.47
2022-11-23T09:37:10.742Z,2.40
2022-11-23T09:42:39.976Z,2.40
2022-11-23T09:48:03.206Z,2.45
2022-11-23T09:53:12.265Z,2.35
2022-11-23T09:58:21.487Z,3.10
2022-11-23T10:03:23.498Z,2.60
2022-11-23T10:08:52.431Z,2.85
2022-11-23T10:14:06.302Z,2.30
2022-11-23T10:19:22.552Z,2.20
2022-11-23T10:24:32.712Z,2.83
2022-11-23T10:29:37.035Z,2.97
2022-11-23T10:34:57.141Z,2.63
2022-11-23T10:39:59.253Z,2.35
2022-11-23T10:45:01.774Z,1.63
2022-11-23T10:50:18.082Z,2.10
2022-11-23T10:55:25.481Z,2.20
2022-11-23T11:00:31.206Z,1.75
2022-11-23T11:11:21.024Z,1.67
2022-11-23T11:16:47.941Z,1.40
2022-11-23T11:21:50.154Z,1.65
2022-11-23T11:26:57.775Z,1.70
2022-11-23T11:32:09.120Z,1.50
2022-11-23T11:37:33.533Z,1.77
2022-11-23T11:43:10.460Z,1.40
2022-11-23T11:48:28.372Z,1.63
2022-11-23T11:53:49.433Z,1.80
2022-11-23T11:58:57.135Z,1.25
2022-11-23T12:04:07.049Z,1.60
2022-11-23T12:09:16.626Z,1.20
2022-11-23T12:14:18.811Z,1.58
2022-11-23T12:19:24.105Z,1.20
2022-11-23T12:24:44.522Z,1.10
2022-11-23T12:30:10.754Z,1.15
2022-11-23T12:35:25.007Z,1.20
2022-11-23T12:40:55.560Z,1.00
2022-11-23T12:46:13.580Z,1.50
2022-11-23T12:51:36.155Z,1.45
2022-11-23T12:56:46.195Z,1.30
2022-11-23T13:01:56.325Z,1.05
2022-11-23T13:07:44.648Z,1.10
2022-11-23T13:13:22.249Z,1.00
2022-11-23T13:18:42.548Z,1.40
2022-11-23T13:23:44.791Z,1.50
2022-11-23T13:28:49.116Z,1.38
2022-11-23T13:33:56.941Z,1.10
2022-11-23T13:39:02.486Z,1.33
2022-11-23T13:44:26.431Z,1.48
2022-11-23T13:49:46.226Z,1.23
2022-11-23T13:55:13.093Z,1.40
2022-11-23T14:00:53.767Z,1.35
2022-11-23T14:06:01.189Z,1.73
2022-11-23T14:11:12.251Z,1.48
2022-11-23T14:21:39.916Z,1.38
2022-11-23T14:32:47.601Z,1.58
2022-11-23T14:38:12.574Z,6.72
2022-11-23T14:43:22.338Z,3.30
2022-11-23T14:48:32.526Z,3.05
2022-11-23T14:53:46.988Z,3.20
2022-11-23T14:58:50.340Z,3.08
2022-11-23T15:03:57.635Z,2.92
2022-11-23T15:09:14.909Z,2.80
2022-11-23T15:14:25.938Z,4.97
2022-11-23T15:24:31.511Z,2.20
2022-11-23T15:29:37.026Z,1.90
2022-11-23T15:34:39.465Z,4.25
2022-11-23T15:39:42.039Z,2.92
2022-11-23T15:44:49.049Z,2.90
2022-11-23T15:50:01.240Z,3.55
2022-11-23T15:55:12.685Z,3.30
2022-11-23T16:00:25.874Z,2.40
2022-11-23T16:05:27.914Z,3.50
2022-11-23T16:10:37.440Z,3.05
2022-11-23T16:15:41.518Z,3.20
2022-11-23T16:20:45.172Z,3.65
2022-11-23T16:25:55.177Z,3.42
2022-11-23T16:30:58.075Z,4.13
2022-11-23T16:36:00.214Z,3.67
2022-11-23T16:41:02.214Z,3.85
2022-11-23T16:46:04.460Z,4.10
2022-11-23T16:51:07.423Z,5.03
2022-11-23T16:56:13.332Z,3.80
2022-11-23T17:01:21.888Z,5.50
2022-11-23T17:06:23.956Z,5.15
2022-11-23T17:11:26.435Z,10.85
2022-11-23T17:16:30.051Z,6.45
2022-11-23T17:21:32.134Z,6.55
2022-11-23T17:26:37.691Z,10.65
2022-11-23T17:31:40.396Z,9.38
2022-11-23T17:36:43.826Z,8.52
2022-11-23T17:41:45.955Z,4.20
2022-11-23T17:46:52.192Z,8.00
2022-11-23T17:51:55.533Z,5.45
2022-11-23T17:56:57.788Z,5.00
2022-11-23T18:01:59.961Z,5.25
2022-11-23T18:07:02.861Z,5.25
2022-11-23T18:12:05.151Z,9.30
2022-11-23T18:17:07.294Z,6.40
2022-11-23T18:22:09.457Z,7.28
2022-11-23T18:27:13.441Z,5.93
2022-11-23T18:32:15.538Z,5.80
2022-11-23T18:37:17.675Z,5.60
2022-11-23T18:42:21.376Z,6.65
2022-11-23T18:47:24.086Z,6.45
2022-11-23T18:52:26.456Z,6.20
2022-11-23T18:57:28.539Z,6.82
2022-11-23T19:02:30.819Z,6.45
2022-11-23T19:07:32.998Z,7.82
2022-11-23T19:12:34.991Z,8.35
2022-11-23T19:17:37.313Z,6.43
2022-11-23T19:22:39.343Z,7.90
2022-11-23T19:27:41.414Z,7.47
2022-11-23T19:32:43.618Z,6.72
2022-11-23T19:37:45.930Z,9.55
2022-11-23T19:42:47.995Z,7.68
2022-11-23T19:47:50.010Z,10.32
2022-11-23T19:53:12.181Z,14.82
2022-11-23T19:58:15.278Z,8.23
2022-11-23T20:03:17.448Z,9.18
2022-11-23T20:08:19.429Z,12.18
2022-11-23T20:13:22.135Z,12.13
2022-11-23T20:18:29.463Z,8.70
2022-11-23T20:23:31.849Z,21.85
2022-11-23T20:28:34.314Z,7.90
2022-11-23T20:33:36.900Z,7.80
2022-11-23T20:38:39.202Z,7.95
2022-11-23T20:43:42.070Z,7.80
2022-11-23T20:48:46.215Z,13.93
2022-11-23T20:53:49.947Z,13.68
2022-11-23T20:58:56.956Z,7.93
2022-11-23T21:03:59.559Z,7.90
2022-11-23T21:09:01.628Z,8.32
2022-11-23T21:14:12.510Z,6.65
2022-11-23T21:19:21.061Z,6.55
2022-11-23T21:24:23.787Z,5.95
2022-11-23T21:29:26.728Z,6.30
2022-11-23T21:34:29.733Z,6.10
2022-11-23T21:39:31.888Z,5.80
2022-11-23T21:44:34.174Z,5.50
2022-11-23T21:49:36.353Z,5.53
2022-11-23T21:54:38.406Z,5.63
2022-11-23T21:59:40.419Z,5.10
2022-11-23T22:04:42.497Z,5.00
2022-11-23T22:09:44.691Z,4.60
2022-11-23T22:14:47.193Z,5.35
2022-11-23T22:19:49.352Z,5.93
2022-11-23T22:24:51.412Z,5.15
2022-11-23T22:29:53.438Z,4.85
2022-11-23T22:34:55.504Z,4.70
2022-11-23T22:39:57.557Z,5.05
2022-11-23T22:44:59.583Z,5.22
2022-11-23T22:50:01.678Z,4.93
2022-11-23T22:55:04.690Z,5.43
2022-11-23T23:00:10.755Z,5.03
2022-11-23T23:05:12.824Z,4.80
2022-11-23T23:10:15.039Z,4.65
2022-11-23T23:15:17.135Z,4.72
2022-11-23T23:20:19.166Z,4.80
2022-11-23T23:25:21.234Z,3.85
2022-11-23T23:30:24.260Z,3.75
2022-11-23T23:35:26.336Z,3.95
2022-11-23T23:40:28.363Z,4.07
2022-11-23T23:45:30.425Z,4.00
2022-11-23T23:50:32.553Z,4.55
2022-11-23T23:55:34.697Z,3.58
